DLKBW EDDH-EHAM
Flight info
| Callsign | DLKBW |
|---|---|
| Flight time | N/A |
| Altitude | 30000 |
| Route | WSN5G/33 WSN N125 ITMIZ DCT BLUFA |
| Aircraft | SF50/L-SDGRWY/L |
Departure
| Time | 2026-04-23 18:17 |
|---|---|
| Airport | Hamburg Helmut Schmidt Airport (EDDH) |
Arrival
| Time | N/A |
|---|---|
| Airport | Amsterdam Airport Schiphol (EHAM) |
| Time | Latitude | Longitude | Altitude | Speed | Heading |
|---|---|---|---|---|---|
| 2026-04-23 17:50 | 53.62631 | 9.98895 | 41 ft | 0 kts | 242° |
| 2026-04-23 18:09 | 53.62639 | 9.98895 | 41 ft | 8 kts | 27° |
| 2026-04-23 18:10 | 53.62735 | 9.98849 | 41 ft | 17 kts | 333° |
| 2026-04-23 18:10 | 53.62811 | 9.98799 | 41 ft | 9 kts | 37° |
| 2026-04-23 18:10 | 53.62859 | 9.98892 | 41 ft | 12 kts | 50° |
| 2026-04-23 18:10 | 53.62918 | 9.99011 | 41 ft | 14 kts | 51° |
| 2026-04-23 18:11 | 53.62991 | 9.99162 | 41 ft | 19 kts | 51° |
| 2026-04-23 18:11 | 53.63074 | 9.99286 | 41 ft | 10 kts | 24° |
| 2026-04-23 18:11 | 53.63099 | 9.99298 | 41 ft | 0 kts | 12° |
| 2026-04-23 18:11 | 53.63103 | 9.99300 | 41 ft | 3 kts | 12° |
| 2026-04-23 18:12 | 53.63113 | 9.99304 | 41 ft | 0 kts | 13° |
| 2026-04-23 18:12 | 53.63150 | 9.99319 | 41 ft | 0 kts | 12° |
| 2026-04-23 18:14 | 53.63191 | 9.99336 | 41 ft | 21 kts | 14° |
| 2026-04-23 18:14 | 53.63348 | 9.99327 | 40 ft | 17 kts | 330° |
| 2026-04-23 18:15 | 53.63368 | 9.99309 | 40 ft | 0 kts | 332° |
| 2026-04-23 18:17 | 53.63386 | 9.99293 | 41 ft | 20 kts | 332° |
| 2026-04-23 18:17 | 53.63711 | 9.99015 | 42 ft | 84 kts | 333° |
| 2026-04-23 18:17 | 53.64320 | 9.98496 | 345 ft | 99 kts | 332° |
| 2026-04-23 18:17 | 53.64951 | 9.97902 | 693 ft | 114 kts | 328° |
| 2026-04-23 18:18 | 53.65725 | 9.97228 | 777 ft | 130 kts | 335° |
| 2026-04-23 18:18 | 53.68307 | 9.95086 | 1790 ft | 142 kts | 332° |
| 2026-04-23 18:19 | 53.69064 | 9.94438 | 2083 ft | 143 kts | 332° |
| 2026-04-23 18:19 | 53.69950 | 9.93677 | 2412 ft | 143 kts | 332° |
| 2026-04-23 18:19 | 53.70826 | 9.92871 | 2728 ft | 144 kts | 323° |
| 2026-04-23 18:19 | 53.71401 | 9.91515 | 3026 ft | 144 kts | 291° |
| 2026-04-23 18:20 | 53.71524 | 9.89854 | 3320 ft | 144 kts | 262° |
| 2026-04-23 18:20 | 53.71209 | 9.88181 | 3551 ft | 161 kts | 250° |
| 2026-04-23 18:20 | 53.70845 | 9.86285 | 3938 ft | 172 kts | 252° |
| 2026-04-23 18:20 | 53.70479 | 9.84391 | 4493 ft | 172 kts | 252° |
| 2026-04-23 18:21 | 53.70100 | 9.82462 | 5009 ft | 174 kts | 252° |
| 2026-04-23 18:21 | 53.69716 | 9.80518 | 5524 ft | 175 kts | 251° |
| 2026-04-23 18:21 | 53.69329 | 9.78559 | 6027 ft | 177 kts | 252° |
| 2026-04-23 18:21 | 53.68939 | 9.76579 | 6523 ft | 178 kts | 251° |
| 2026-04-23 18:22 | 53.68544 | 9.74589 | 7010 ft | 179 kts | 252° |
| 2026-04-23 18:22 | 53.68151 | 9.72577 | 7485 ft | 181 kts | 252° |
| 2026-04-23 18:22 | 53.67757 | 9.70582 | 7948 ft | 182 kts | 252° |
| 2026-04-23 18:22 | 53.67357 | 9.68544 | 8406 ft | 183 kts | 252° |
| 2026-04-23 18:23 | 53.67091 | 9.67185 | 8706 ft | 184 kts | 252° |
| 2026-04-23 18:23 | 53.66136 | 9.62345 | 9731 ft | 187 kts | 251° |
| 2026-04-23 18:24 | 53.65262 | 9.57987 | 10491 ft | 194 kts | 251° |
| 2026-04-23 18:24 | 53.64839 | 9.55911 | 11025 ft | 190 kts | 251° |
| 2026-04-23 18:24 | 53.64399 | 9.53779 | 11408 ft | 193 kts | 251° |
| 2026-04-23 18:25 | 53.63510 | 9.49486 | 12232 ft | 195 kts | 251° |
| 2026-04-23 18:25 | 53.63063 | 9.47321 | 12637 ft | 196 kts | 251° |
| 2026-04-23 18:25 | 53.62616 | 9.45142 | 13035 ft | 198 kts | 251° |
| 2026-04-23 18:25 | 53.62167 | 9.42942 | 13437 ft | 199 kts | 251° |
| 2026-04-23 18:26 | 53.61720 | 9.40731 | 13832 ft | 200 kts | 251° |
| 2026-04-23 18:26 | 53.61275 | 9.38501 | 14224 ft | 201 kts | 251° |
| 2026-04-23 18:26 | 53.60839 | 9.36287 | 14607 ft | 203 kts | 252° |
| 2026-04-23 18:26 | 53.60395 | 9.33996 | 14997 ft | 204 kts | 252° |
| 2026-04-23 18:27 | 53.59893 | 9.31797 | 15369 ft | 204 kts | 244° |